AirNav   Air Wisconsin Up To $57,000 Bonus
 
 1806 users online  

RI11 Riconn Airport
Greene, Rhode Island, USA

GOING TO GREENE?


FAA INFORMATION EFFECTIVE 02 JANUARY 2020

Location

FAA Identifier: RI11
Lat/Long: 41-41-48.3570N 071-47-01.2510W
41-41.805950N 071-47.020850W
41.6967658,-71.7836808
(estimated)
Elevation: 385 ft. / 117 m (estimated)
Variation: 15W (1985)
From city: 2 miles W of GREENE, RI
Time zone: UTC -5 (UTC -4 during Daylight Saving Time)
Zip code: 02827

Airport Operations

Airport use: Private use. Permission required prior to landing
Activation date: 08/1942
Control tower: no
ARTCC: BOSTON CENTER
FSS: BRIDGEPORT FLIGHT SERVICE STATION
Attendance: IREG
Wind indicator: yes
Segmented circle: no

Airport Communications

WX AWOS-3 at LZD (9 nm NW): 119.125 (860-779-7251)
WX ASOS at PVD (16 nm E): 124.2 (401-734-2818)
WX ASOS at OQU (18 nm E): 118.6
WX ASOS at IJD (18 nm W): 133.675 (860-456-8839)
WX AWOS-3PT at SFZ (19 nm NE): 120.775 (401-334-0324)

Nearby radio navigation aids

VOR radial/distance  VOR name  Freq  Var
ORWr063/12.8NORWICH VOR/DME110.0014W
PUTr184/15.8PUTNAM VOR/DME117.4014W
PVDr278/15.9PROVIDENCE VOR/DME115.6014W
GONr043/25.1GROTON VOR/DME110.8514W
SEYr359/33.1SANDY POINT VOR/DME117.8015W
HFDr097/34.4HARTFORD VOR/DME114.9013W

 
NDB name  Hdg/Dist  Freq  Var  ID
TAUNTON269/36.022716WTAN - .- -.

Airport Services

Airframe service: NONE
Powerplant service: NONE

Runway Information

Runway 9/27

Dimensions: 1600 x 100 ft. / 488 x 30 m
Surface: turf
RUNWAY 9  RUNWAY 27
Traffic pattern: leftleft

Runway 14/32

Dimensions: 1576 x 100 ft. / 480 x 30 m
Surface: turf
RUNWAY 14  RUNWAY 32
Traffic pattern: leftleft
Obstructions: treesnone

Airport Ownership and Management from official FAA records

Ownership: Privately-owned
Owner: EDWARD BATTEY ET ALS.
2357 PLAINFIELD PIKE
GREENE, RI 02827
Phone 401-397-3850
FRACTIONAL OWNERSHIP - NO DESIGNATED MANAGER

Airport Operational Statistics

Aircraft based on the field: 16
Single engine airplanes: 16
    

Additional Remarks

FOR CD CTC PROVIDENCE APCH AT 401-738-8945, WHEN APCH CLSD CTC BOSTON ARTCC AT 603-879-6859.

Instrument Procedures

There are no published instrument procedures at RI11.

Some nearby airports with instrument procedures:

KLZD - Danielson Airport (9 nm NW)
KPVD - Theodore Francis Green State Airport (16 nm E)
KOQU - Quonset State Airport (18 nm E)
KIJD - Windham Airport (18 nm W)
KSFZ - North Central State Airport (19 nm NE)
 
Loc | Ops | Rwys | IFR | FBO | Links
Com | Nav | Svcs | Stats | Notes
Area around RI11 (Riconn Airport)
 
Road maps at: MapQuest Bing Google
 
Aerial photo
WARNING: Photo may not be current or correct
Aerial photo of RI11 (Riconn Airport)
Photo by Mick Wingert
Taken in 2016
looking northeast

Do you have a better or more recent aerial photo of Riconn Airport that you would like to share? If so, please send us your photo.

 
Sectional chart

 
Airport distance calculator
Flying to Riconn Airport? Find the distance to fly.

From to RI11

Sunrise and sunset
Times for 23-Jan-2020
 Local
(UTC-5)
 Zulu
(UTC)
Morning civil twilight06:3811:38
Sunrise07:0812:08
Sunset16:5021:50
Evening civil twilight17:2022:20

Current date and time
Zulu (UTC)  23-Jan-2020 20:43:49
Local (UTC-5)  23-Jan-2020 15:43:49
 
METAR
KPVD 
16nm E 
231951Z 25004KT 10SM BKN250 08/M09 A3033 RMK AO2 SLP269 T00831094
KOQU 
17nm E 
231950Z 20009KT 10SM BKN250 06/M03 A3032
KIJD 
18nm W 
231952Z AUTO 20004KT 10SM CLR 07/M12 A3033 RMK AO2 SLP275 T00721117
KSFZ 
18nm NE 
231956Z AUTO 25005KT 10SM CLR 07/M12 A3031 RMK AO2 SLP213 T00671122
KWST 
21nm S 
231953Z AUTO 24007KT 10SM CLR 06/M06 A3035 RMK AO2 SLP277 T00561056
KUUU 
24nm SE 
231953Z AUTO 23004KT 10SM CLR 05/M04 A3032 RMK AO2 SLP267 T00501039
KGON 
25nm SW 
231956Z 25007KT 10SM CLR 04/M07 A3034 RMK AO2 SLP273 T00441072
TAF
KPVD 
16nm E 
231726Z 2318/2418 23006KT P6SM BKN250 FM240200 VRB03KT P6SM BKN200 FM241400 02004KT P6SM SCT250
NOTAMs
Click for the latest NOTAMs
NOTAMs are issued by the DoD/FAA and will open in a separate window not controlled by AirNav.

 

 
 

Would you like to see your business listed on this page?

 If your business provides an interesting product or service to pilots, flight crews, aircraft, or users of the Riconn Airport, you should consider listing it here.  To start the listing process, click on the button below
 
Add a business
 

Other Pages about Riconn Airport

Update a link
 
Copyright © AirNav, LLC. All rights reserved. Privacy Policy  Contact